Wetterdaten: Woche 20.07.20 - 26.07.20 (KW30)
Datum Zeit Temp. Aussen Temp. o. S. Temp +5cm Feuchte Auss Luftdruck Regen Sonnenschein Regendauer Solar Windben Empfang
20.07.2020 00:00 18,7 C 16,9 C 16,9 C 89 % 1016,9 hPa 0,0 l/m 0,00 h 0,00 h 0 W/m 3,1 km/h (1 Bft) 97,79 %
20.07.2020 01:00 17,9 C 16,5 C 16,7 C 90 % 1017,0 hPa 0,0 l/m 0,00 h 0,00 h 0 W/m 3,2 km/h (1 Bft) 96,73 %
20.07.2020 02:00 17,3 C 16,0 C 16,1 C 89 % 1017,1 hPa 0,0 l/m 0,00 h 0,10 h 0 W/m 1,7 km/h (1 Bft) 95,71 %
20.07.2020 03:00 16,9 C 15,6 C 15,7 C 91 % 1017,3 hPa 0,0 l/m 0,00 h 0,00 h 0 W/m 3,1 km/h (1 Bft) 98,93 %
20.07.2020 04:00 16,3 C 14,9 C 15,3 C 93 % 1017,5 hPa 0,0 l/m 0,00 h 0,10 h 0 W/m 4,4 km/h (1 Bft) 96,16 %
20.07.2020 05:00 15,7 C 13,9 C 14,1 C 94 % 1017,8 hPa 0,4 l/m 0,00 h 0,43 h 0 W/m 3,9 km/h (1 Bft) 96,80 %
20.07.2020 06:00 15,3 C 13,9 C 13,9 C 96 % 1018,1 hPa 0,0 l/m 0,00 h 0,37 h 11 W/m 2,3 km/h (1 Bft) 98,54 %
20.07.2020 07:00 15,0 C 13,9 C 14,0 C 97 % 1018,4 hPa 0,0 l/m 0,00 h 0,00 h 32 W/m 1,2 km/h (1 Bft) 98,15 %
20.07.2020 08:00 15,2 C 15,1 C 15,4 C 97 % 1018,8 hPa 0,0 l/m 0,00 h 0,00 h 120 W/m 4,4 km/h (1 Bft) 96,09 %
20.07.2020 09:00 16,6 C 18,5 C 18,9 C 93 % 1019,2 hPa 0,0 l/m 0,43 h 0,00 h 263 W/m 7,3 km/h (2 Bft) 98,15 %
20.07.2020 10:00 18,6 C 20,6 C 20,0 C 80 % 1019,6 hPa 0,0 l/m 0,67 h 0,00 h 334 W/m 7,5 km/h (2 Bft) 96,38 %
20.07.2020 11:00 19,4 C 21,1 C 19,7 C 75 % 1020,0 hPa 0,0 l/m 0,23 h 0,00 h 326 W/m 6,7 km/h (2 Bft) 96,80 %
20.07.2020 12:00 21,7 C 26,6 C 21,9 C 66 % 1020,5 hPa 0,0 l/m 0,80 h 0,00 h 742 W/m 9,1 km/h (2 Bft) 99,00 %
20.07.2020 13:00 24,2 C 28,6 C 24,3 C 55 % 1020,3 hPa 0,0 l/m 0,83 h 0,00 h 896 W/m 9,8 km/h (2 Bft) 97,22 %
20.07.2020 14:00 24,2 C 27,7 C 24,5 C 52 % 1020,2 hPa 0,0 l/m 0,73 h 0,00 h 801 W/m 8,8 km/h (2 Bft) 96,50 %
20.07.2020 15:00 25,7 C 30,1 C 24,2 C 48 % 1020,1 hPa 0,0 l/m 0,90 h 0,00 h 901 W/m 7,4 km/h (2 Bft) 97,93 %
20.07.2020 16:00 26,1 C 29,4 C 25,6 C 47 % 1020,0 hPa 0,0 l/m 0,87 h 0,00 h 759 W/m 9,1 km/h (2 Bft) 97,29 %
20.07.2020 17:00 25,3 C 25,3 C 23,2 C 49 % 1020,0 hPa 0,0 l/m 0,43 h 0,00 h 357 W/m 8,4 km/h (2 Bft) 98,43 %
20.07.2020 18:00 23,6 C 23,7 C 20,9 C 55 % 1019,9 hPa 0,0 l/m 0,80 h 0,00 h 332 W/m 8,2 km/h (2 Bft) 96,43 %
20.07.2020 19:00 22,5 C 21,1 C 19,3 C 56 % 1020,1 hPa 0,0 l/m 0,37 h 0,00 h 154 W/m 7,1 km/h (2 Bft) 98,18 %
20.07.2020 20:00 20,4 C 18,8 C 18,1 C 56 % 1020,4 hPa 0,0 l/m 0,00 h 0,00 h 36 W/m 9,1 km/h (2 Bft) 97,93 %
20.07.2020 21:00 18,8 C 16,6 C 16,4 C 60 % 1021,2 hPa 0,0 l/m 0,00 h 0,00 h 11 W/m 4,7 km/h (1 Bft) 95,93 %
20.07.2020 22:00 17,2 C 15,0 C 14,7 C 63 % 1021,8 hPa 0,0 l/m 0,00 h 0,00 h 0 W/m 1,8 km/h (1 Bft) 97,00 %
20.07.2020 23:00 16,0 C 14,0 C 13,8 C 69 % 1022,3 hPa 0,0 l/m 0,00 h 0,00 h 0 W/m 1,5 km/h (1 Bft) 99,36 %
21.07.2020 00:00 14,9 C 12,6 C 12,6 C 73 % 1022,7 hPa 0,0 l/m 0,00 h 0,00 h 0 W/m 0,2 km/h (0 Bft) 97,06 %
21.07.2020 01:00 13,8 C 11,4 C 11,6 C 77 % 1023,0 hPa 0,0 l/m 0,00 h 0,00 h 0 W/m 0,0 km/h (0 Bft) 97,58 %
21.07.2020 02:00 12,7 C 10,7 C 10,8 C 80 % 1023,2 hPa 0,0 l/m 0,00 h 0,00 h 0 W/m 0,5 km/h (0 Bft) 96,58 %
21.07.2020 03:00 11,7 C 9,9 C 10,2 C 83 % 1023,3 hPa 0,0 l/m 0,00 h 0,00 h 0 W/m 0,1 km/h (0 Bft) 97,65 %
21.07.2020 04:00 11,0 C 9,4 C 9,5 C 86 % 1023,2 hPa 0,0 l/m 0,00 h 0,00 h 0 W/m 0,0 km/h (0 Bft) 95,95 %
21.07.2020 05:00 10,5 C 9,0 C 9,0 C 89 % 1023,3 hPa 0,0 l/m 0,00 h 0,00 h 5 W/m 0,0 km/h (0 Bft) 99,00 %
21.07.2020 06:00 10,4 C 9,8 C 9,8 C 92 % 1023,5 hPa 0,0 l/m 0,00 h 0,00 h 20 W/m 0,0 km/h (0 Bft) 96,41 %
21.07.2020 07:00 11,0 C 11,6 C 11,0 C 94 % 1023,7 hPa 0,0 l/m 0,00 h 0,00 h 44 W/m 0,0 km/h (0 Bft) 95,32 %
21.07.2020 08:00 13,0 C 17,0 C 15,0 C 95 % 1024,1 hPa 0,0 l/m 0,00 h 0,00 h 109 W/m 5,6 km/h (1 Bft) 97,83 %
21.07.2020 09:00 17,3 C 22,6 C 26,8 C 79 % 1024,2 hPa 0,0 l/m 0,93 h 0,00 h 499 W/m 6,6 km/h (2 Bft) 96,29 %
21.07.2020 10:00 19,3 C 21,6 C 23,3 C 69 % 1024,3 hPa 0,0 l/m 0,57 h 0,00 h 455 W/m 7,9 km/h (2 Bft) 96,01 %
21.07.2020 11:00 19,9 C 24,3 C 20,6 C 62 % 1024,6 hPa 0,0 l/m 0,63 h 0,00 h 649 W/m 7,4 km/h (2 Bft) 99,00 %
21.07.2020 12:00 22,0 C 27,5 C 21,3 C 56 % 1024,8 hPa 0,0 l/m 0,93 h 0,00 h 922 W/m 9,2 km/h (2 Bft) 96,55 %
21.07.2020 13:00 23,5 C 27,9 C 24,3 C 53 % 1024,6 hPa 0,0 l/m 0,67 h 0,00 h 756 W/m 9,7 km/h (2 Bft) 96,79 %
21.07.2020 14:00 23,5 C 25,7 C 23,9 C 52 % 1024,3 hPa 0,0 l/m 0,40 h 0,00 h 547 W/m 7,6 km/h (2 Bft) 97,02 %
21.07.2020 15:00 24,9 C 30,3 C 23,5 C 49 % 1024,1 hPa 0,0 l/m 1,00 h 0,00 h 956 W/m 10,9 km/h (2 Bft) 98,01 %
21.07.2020 16:00 25,5 C 27,9 C 24,7 C 47 % 1023,9 hPa 0,0 l/m 0,67 h 0,00 h 613 W/m 8,9 km/h (2 Bft) 97,86 %
21.07.2020 17:00 24,4 C 25,6 C 23,2 C 48 % 1023,7 hPa 0,0 l/m 0,63 h 0,00 h 449 W/m 7,3 km/h (2 Bft) 95,58 %
21.07.2020 18:00 24,0 C 24,0 C 21,4 C 48 % 1023,4 hPa 0,0 l/m 0,73 h 0,00 h 361 W/m 6,4 km/h (2 Bft) 98,58 %
21.07.2020 19:00 23,1 C 21,8 C 19,7 C 49 % 1023,2 hPa 0,0 l/m 0,63 h 0,00 h 224 W/m 5,0 km/h (1 Bft) 98,24 %
21.07.2020 20:00 21,0 C 18,8 C 18,1 C 54 % 1023,2 hPa 0,0 l/m 0,00 h 0,00 h 33 W/m 3,7 km/h (1 Bft) 96,10 %
21.07.2020 21:00 19,3 C 16,8 C 16,3 C 59 % 1023,3 hPa 0,0 l/m 0,00 h 0,00 h 10 W/m 1,7 km/h (1 Bft) 98,29 %
21.07.2020 22:00 17,5 C 14,9 C 14,7 C 65 % 1023,8 hPa 0,0 l/m 0,00 h 0,00 h 0 W/m 2,7 km/h (1 Bft) 96,60 %
21.07.2020 23:00 16,1 C 14,1 C 14,1 C 74 % 1024,2 hPa 0,0 l/m 0,00 h 0,00 h 0 W/m 3,4 km/h (1 Bft) 95,20 %
22.07.2020 00:00 15,1 C 13,2 C 13,1 C 77 % 1024,6 hPa 0,0 l/m 0,00 h 0,00 h 0 W/m 1,3 km/h (1 Bft) 98,12 %
22.07.2020 01:00 14,1 C 12,0 C 11,9 C 79 % 1024,7 hPa 0,0 l/m 0,00 h 0,00 h 0 W/m 0,0 km/h (0 Bft) 97,94 %
22.07.2020 02:00 13,1 C 11,0 C 11,2 C 82 % 1024,9 hPa 0,0 l/m 0,00 h 0,00 h 0 W/m 0,0 km/h (0 Bft) 97,44 %
22.07.2020 03:00 12,1 C 10,1 C 10,4 C 85 % 1024,9 hPa 0,0 l/m 0,00 h 0,00 h 0 W/m 0,0 km/h (0 Bft) 96,10 %
22.07.2020 04:00 11,3 C 9,7 C 10,2 C 87 % 1024,9 hPa 0,0 l/m 0,00 h 0,00 h 0 W/m 0,0 km/h (0 Bft) 97,30 %
22.07.2020 05:00 11,0 C 9,7 C 10,1 C 89 % 1024,7 hPa 0,0 l/m 0,00 h 0,00 h 4 W/m 0,0 km/h (0 Bft) 95,72 %
22.07.2020 06:00 10,7 C 9,9 C 9,9 C 91 % 1024,5 hPa 0,0 l/m 0,00 h 0,00 h 17 W/m 0,0 km/h (0 Bft) 98,34 %
22.07.2020 07:00 11,3 C 12,4 C 11,8 C 93 % 1024,3 hPa 0,0 l/m 0,00 h 0,00 h 65 W/m 0,0 km/h (0 Bft) 97,64 %
22.07.2020 08:00 13,5 C 17,1 C 15,3 C 92 % 1024,4 hPa 0,0 l/m 0,07 h 0,00 h 145 W/m 0,9 km/h (0 Bft) 96,44 %
22.07.2020 09:00 17,3 C 21,8 C 25,0 C 75 % 1024,5 hPa 0,0 l/m 0,87 h 0,00 h 444 W/m 2,5 km/h (1 Bft) 99,15 %
22.07.2020 10:00 19,8 C 23,8 C 25,9 C 65 % 1024,4 hPa 0,0 l/m 0,90 h 0,00 h 551 W/m 3,9 km/h (1 Bft) 97,72 %
22.07.2020 11:00 20,6 C 24,9 C 22,1 C 61 % 1024,2 hPa 0,0 l/m 0,87 h 0,00 h 560 W/m 4,1 km/h (1 Bft) 94,92 %
22.07.2020 12:00 22,3 C 26,9 C 22,4 C 54 % 1023,9 hPa 0,0 l/m 0,90 h 0,00 h 704 W/m 4,3 km/h (1 Bft) 94,46 %
22.07.2020 13:00 23,8 C 28,9 C 24,6 C 49 % 1023,4 hPa 0,0 l/m 1,00 h 0,00 h 897 W/m 6,9 km/h (2 Bft) 94,64 %
22.07.2020 14:00 25,3 C 30,0 C 26,0 C 46 % 1022,9 hPa 0,0 l/m 1,00 h 0,00 h 931 W/m 7,3 km/h (2 Bft) 92,68 %
22.07.2020 15:00 25,9 C 29,8 C 24,0 C 44 % 1022,3 hPa 0,0 l/m 1,00 h 0,00 h 828 W/m 8,2 km/h (2 Bft) 95,71 %
22.07.2020 16:00 26,0 C 28,9 C 24,9 C 46 % 1021,8 hPa 0,0 l/m 1,00 h 0,00 h 776 W/m 9,8 km/h (2 Bft) 97,30 %
22.07.2020 17:00 25,3 C 27,2 C 24,3 C 49 % 1021,3 hPa 0,0 l/m 0,93 h 0,00 h 605 W/m 9,1 km/h (2 Bft) 98,50 %
22.07.2020 18:00 24,5 C 24,5 C 22,4 C 50 % 1020,7 hPa 0,0 l/m 0,87 h 0,03 h 364 W/m 7,4 km/h (2 Bft) 95,38 %
22.07.2020 19:00 22,3 C 20,5 C 19,8 C 53 % 1020,4 hPa 0,0 l/m 0,27 h 0,00 h 134 W/m 5,6 km/h (1 Bft) 98,30 %
22.07.2020 20:00 20,4 C 18,8 C 18,4 C 58 % 1020,4 hPa 0,0 l/m 0,00 h 0,00 h 34 W/m 4,9 km/h (1 Bft) 90,40 %
22.07.2020 21:00 19,0 C 16,8 C 16,7 C 61 % 1020,6 hPa 0,0 l/m 0,00 h 0,00 h 11 W/m 1,2 km/h (1 Bft) 90,67 %
22.07.2020 22:00 17,6 C 15,4 C 15,2 C 66 % 1020,9 hPa 0,0 l/m 0,00 h 0,00 h 0 W/m 0,4 km/h (0 Bft) 97,94 %
22.07.2020 23:00 16,4 C 14,6 C 14,3 C 69 % 1020,9 hPa 0,0 l/m 0,00 h 0,00 h 0 W/m 0,7 km/h (0 Bft) 98,16 %
23.07.2020 00:00 15,5 C 13,8 C 13,6 C 72 % 1021,0 hPa 0,0 l/m 0,00 h 0,00 h 0 W/m 0,3 km/h (0 Bft) 96,13 %
23.07.2020 01:00 14,7 C 12,9 C 12,7 C 75 % 1021,1 hPa 0,0 l/m 0,00 h 0,00 h 0 W/m 0,1 km/h (0 Bft) 96,30 %
23.07.2020 02:00 13,8 C 11,6 C 11,5 C 77 % 1020,9 hPa 0,0 l/m 0,00 h 0,00 h 0 W/m 0,0 km/h (0 Bft) 98,02 %
23.07.2020 03:00 12,7 C 10,4 C 10,5 C 81 % 1020,5 hPa 0,0 l/m 0,00 h 0,00 h 0 W/m 0,0 km/h (0 Bft) 94,89 %
23.07.2020 04:00 11,7 C 9,5 C 9,5 C 83 % 1020,2 hPa 0,0 l/m 0,00 h 0,00 h 0 W/m 0,0 km/h (0 Bft) 98,22 %
23.07.2020 05:00 11,0 C 9,2 C 9,4 C 86 % 1019,9 hPa 0,0 l/m 0,00 h 0,00 h 5 W/m 0,0 km/h (0 Bft) 98,21 %
23.07.2020 06:00 10,5 C 9,3 C 9,2 C 89 % 1019,6 hPa 0,0 l/m 0,00 h 0,00 h 13 W/m 0,0 km/h (0 Bft) 97,65 %
23.07.2020 07:00 10,8 C 11,6 C 10,5 C 93 % 1019,4 hPa 0,0 l/m 0,00 h 0,00 h 27 W/m 0,0 km/h (0 Bft) 94,86 %
23.07.2020 08:00 13,1 C 19,0 C 15,0 C 93 % 1019,2 hPa 0,0 l/m 0,03 h 0,00 h 68 W/m 3,1 km/h (1 Bft) 99,01 %
23.07.2020 09:00 19,3 C 24,8 C 28,4 C 69 % 1019,2 hPa 0,0 l/m 0,97 h 0,00 h 483 W/m 4,5 km/h (1 Bft) 97,38 %
23.07.2020 10:00 21,9 C 26,0 C 27,1 C 56 % 1018,9 hPa 0,0 l/m 0,97 h 0,00 h 625 W/m 4,7 km/h (1 Bft) 97,70 %
23.07.2020 11:00 23,8 C 29,3 C 24,0 C 51 % 1018,5 hPa 0,0 l/m 1,00 h 0,00 h 807 W/m 4,5 km/h (1 Bft) 97,17 %
23.07.2020 12:00 25,3 C 31,0 C 23,4 C 48 % 1018,0 hPa 0,0 l/m 1,00 h 0,00 h 896 W/m 6,2 km/h (2 Bft) 97,51 %
23.07.2020 13:00 27,2 C 32,4 C 26,8 C 46 % 1017,4 hPa 0,0 l/m 1,00 h 0,00 h 933 W/m 8,1 km/h (2 Bft) 97,84 %
23.07.2020 14:00 27,9 C 32,6 C 28,5 C 44 % 1016,7 hPa 0,0 l/m 1,00 h 0,00 h 928 W/m 9,3 km/h (2 Bft) 96,64 %
23.07.2020 15:00 28,9 C 33,2 C 26,6 C 44 % 1016,1 hPa 0,0 l/m 1,00 h 0,00 h 873 W/m 8,8 km/h (2 Bft) 98,44 %
23.07.2020 16:00 29,2 C 32,3 C 27,6 C 43 % 1015,4 hPa 0,0 l/m 1,00 h 0,00 h 747 W/m 9,6 km/h (2 Bft) 98,49 %
23.07.2020 17:00 29,3 C 31,8 C 27,3 C 44 % 1014,7 hPa 0,0 l/m 1,00 h 0,00 h 601 W/m 7,2 km/h (2 Bft) 96,29 %
23.07.2020 18:00 28,6 C 28,7 C 25,5 C 44 % 1014,2 hPa 0,0 l/m 1,00 h 0,00 h 403 W/m 9,1 km/h (2 Bft) 97,57 %
23.07.2020 19:00 27,3 C 25,3 C 22,9 C 47 % 1013,7 hPa 0,0 l/m 0,57 h 0,00 h 161 W/m 6,1 km/h (2 Bft) 97,41 %
23.07.2020 20:00 24,9 C 22,8 C 19,8 C 54 % 1013,3 hPa 0,0 l/m 0,00 h 0,00 h 47 W/m 1,1 km/h (0 Bft) 97,66 %
23.07.2020 21:00 23,2 C 20,9 C 18,0 C 58 % 1013,0 hPa 0,0 l/m 0,00 h 0,00 h 10 W/m 0,4 km/h (0 Bft) 96,83 %
23.07.2020 22:00 21,7 C 19,8 C 17,8 C 63 % 1012,9 hPa 0,0 l/m 0,00 h 0,00 h 0 W/m 0,0 km/h (0 Bft) 97,02 %
23.07.2020 23:00 21,3 C 20,7 C 18,2 C 62 % 1012,7 hPa 0,0 l/m 0,00 h 0,00 h 0 W/m 2,0 km/h (1 Bft) 97,74 %
24.07.2020 00:00 21,3 C 19,4 C 17,7 C 65 % 1012,5 hPa 0,0 l/m 0,00 h 0,00 h 0 W/m 0,6 km/h (0 Bft) 97,37 %
24.07.2020 01:00 20,2 C 18,5 C 17,2 C 68 % 1012,3 hPa 0,0 l/m 0,00 h 0,00 h 0 W/m 0,4 km/h (0 Bft) 96,18 %
24.07.2020 02:00 19,6 C 18,2 C 17,5 C 71 % 1011,9 hPa 0,0 l/m 0,00 h 0,00 h 0 W/m 1,9 km/h (1 Bft) 98,02 %
24.07.2020 03:00 19,0 C 17,3 C 16,7 C 74 % 1011,7 hPa 0,0 l/m 0,00 h 0,00 h 0 W/m 0,5 km/h (0 Bft) 98,08 %
24.07.2020 04:00 18,4 C 17,2 C 16,4 C 75 % 1011,4 hPa 0,0 l/m 0,00 h 0,00 h 0 W/m 0,4 km/h (0 Bft) 96,94 %
24.07.2020 05:00 18,1 C 17,1 C 16,7 C 77 % 1011,4 hPa 0,0 l/m 0,00 h 0,00 h 0 W/m 3,4 km/h (1 Bft) 97,33 %
24.07.2020 06:00 17,8 C 16,6 C 16,5 C 76 % 1011,4 hPa 0,0 l/m 0,00 h 0,00 h 21 W/m 3,4 km/h (1 Bft) 97,53 %
24.07.2020 07:00 17,6 C 17,4 C 17,1 C 72 % 1011,8 hPa 0,0 l/m 0,00 h 0,00 h 72 W/m 5,5 km/h (1 Bft) 98,09 %
24.07.2020 08:00 18,2 C 18,9 C 18,2 C 68 % 1012,2 hPa 0,0 l/m 0,10 h 0,00 h 159 W/m 11,9 km/h (2 Bft) 96,89 %
24.07.2020 09:00 19,1 C 19,8 C 19,5 C 67 % 1012,4 hPa 0,0 l/m 0,37 h 0,00 h 244 W/m 9,2 km/h (2 Bft) 97,59 %
24.07.2020 10:00 19,5 C 20,7 C 19,9 C 71 % 1012,5 hPa 0,0 l/m 0,20 h 0,00 h 292 W/m 9,4 km/h (2 Bft) 97,40 %
24.07.2020 11:00 20,5 C 21,3 C 20,5 C 72 % 1012,7 hPa 0,0 l/m 0,00 h 0,00 h 257 W/m 7,6 km/h (2 Bft) 97,89 %
24.07.2020 12:00 21,7 C 24,4 C 22,7 C 70 % 1012,8 hPa 0,0 l/m 0,63 h 0,00 h 463 W/m 12,1 km/h (2 Bft) 97,57 %
24.07.2020 13:00 24,5 C 28,3 C 25,3 C 63 % 1012,5 hPa 0,0 l/m 0,97 h 0,00 h 646 W/m 12,1 km/h (2 Bft) 97,46 %
24.07.2020 14:00 25,2 C 27,0 C 25,1 C 62 % 1012,6 hPa 0,0 l/m 0,73 h 0,00 h 490 W/m 12,0 km/h (2 Bft) 97,65 %
24.07.2020 15:00 25,7 C 27,8 C 25,4 C 60 % 1012,3 hPa 0,0 l/m 0,83 h 0,00 h 552 W/m 12,6 km/h (3 Bft) 97,44 %
24.07.2020 16:00 24,8 C 23,6 C 23,5 C 63 % 1012,3 hPa 0,2 l/m 0,17 h 0,13 h 211 W/m 16,3 km/h (3 Bft) 97,56 %
24.07.2020 17:00 21,1 C 17,8 C 17,9 C 85 % 1012,6 hPa 1,0 l/m 0,00 h 0,37 h 96 W/m 3,0 km/h (1 Bft) 97,30 %
24.07.2020 18:00 20,6 C 20,7 C 18,8 C 89 % 1012,5 hPa 0,0 l/m 0,57 h 0,00 h 266 W/m 3,0 km/h (1 Bft) 97,06 %
24.07.2020 19:00 21,4 C 19,4 C 17,9 C 82 % 1012,6 hPa 0,0 l/m 0,00 h 0,10 h 32 W/m 1,9 km/h (1 Bft) 97,79 %
24.07.2020 20:00 20,2 C 18,5 C 17,8 C 86 % 1012,7 hPa 0,0 l/m 0,00 h 0,00 h 38 W/m 4,3 km/h (1 Bft) 97,44 %
24.07.2020 21:00 19,5 C 18,0 C 17,4 C 87 % 1013,0 hPa 0,0 l/m 0,00 h 0,00 h 9 W/m 3,2 km/h (1 Bft) 97,17 %
24.07.2020 22:00 19,1 C 17,8 C 17,7 C 91 % 1013,3 hPa 0,0 l/m 0,00 h 0,00 h 0 W/m 2,9 km/h (1 Bft) 97,76 %
24.07.2020 23:00 18,7 C 17,5 C 17,2 C 91 % 1013,4 hPa 0,0 l/m 0,00 h 0,00 h 0 W/m 2,8 km/h (1 Bft) 97,93 %
25.07.2020 00:00 18,3 C 17,1 C 16,7 C 90 % 1013,4 hPa 0,0 l/m 0,00 h 0,00 h 0 W/m 2,0 km/h (1 Bft) 91,98 %
25.07.2020 01:00 17,9 C 16,6 C 16,0 C 90 % 1013,4 hPa 0,0 l/m 0,00 h 0,00 h 0 W/m 0,7 km/h (0 Bft) 97,59 %
25.07.2020 02:00 17,3 C 15,7 C 15,1 C 91 % 1013,1 hPa 0,0 l/m 0,00 h 0,00 h 0 W/m 1,5 km/h (1 Bft) 97,66 %
25.07.2020 03:00 16,6 C 15,5 C 14,9 C 92 % 1013,1 hPa 0,0 l/m 0,00 h 0,00 h 0 W/m 2,6 km/h (1 Bft) 98,22 %
25.07.2020 04:00 16,6 C 15,9 C 15,5 C 93 % 1013,0 hPa 0,0 l/m 0,00 h 0,00 h 0 W/m 4,4 km/h (1 Bft) 96,96 %
25.07.2020 05:00 16,5 C 15,2 C 15,0 C 92 % 1012,9 hPa 0,0 l/m 0,00 h 0,00 h 5 W/m 5,9 km/h (2 Bft) 97,61 %
25.07.2020 06:00 16,1 C 15,2 C 14,7 C 92 % 1012,9 hPa 0,0 l/m 0,00 h 0,00 h 24 W/m 5,5 km/h (1 Bft) 97,82 %
25.07.2020 07:00 16,4 C 16,7 C 16,0 C 92 % 1013,0 hPa 0,0 l/m 0,00 h 0,00 h 62 W/m 9,4 km/h (2 Bft) 97,68 %
25.07.2020 08:00 17,6 C 18,0 C 17,1 C 88 % 1013,1 hPa 0,0 l/m 0,00 h 0,00 h 78 W/m 10,7 km/h (2 Bft) 97,33 %
25.07.2020 09:00 18,6 C 19,1 C 17,9 C 85 % 1013,0 hPa 0,0 l/m 0,00 h 0,00 h 115 W/m 10,1 km/h (2 Bft) 97,50 %
25.07.2020 10:00 20,1 C 21,3 C 20,2 C 81 % 1013,0 hPa 0,0 l/m 0,13 h 0,00 h 236 W/m 16,4 km/h (3 Bft) 97,00 %
25.07.2020 11:00 22,2 C 24,5 C 22,7 C 74 % 1012,7 hPa 0,0 l/m 0,67 h 0,00 h 457 W/m 24,0 km/h (4 Bft) 98,57 %
25.07.2020 12:00 23,7 C 24,7 C 23,7 C 69 % 1012,5 hPa 0,0 l/m 0,47 h 0,00 h 390 W/m 22,6 km/h (4 Bft) 96,90 %
25.07.2020 13:00 24,3 C 25,1 C 24,0 C 66 % 1012,2 hPa 0,0 l/m 0,20 h 0,00 h 334 W/m 19,4 km/h (3 Bft) 96,91 %
25.07.2020 14:00 23,8 C 23,1 C 22,5 C 67 % 1012,0 hPa 0,0 l/m 0,00 h 0,00 h 142 W/m 15,2 km/h (3 Bft) 97,87 %
25.07.2020 15:00 22,7 C 22,3 C 21,5 C 76 % 1011,7 hPa 0,0 l/m 0,00 h 0,10 h 136 W/m 6,1 km/h (2 Bft) 97,52 %
25.07.2020 16:00 22,6 C 21,4 C 20,3 C 81 % 1011,2 hPa 0,0 l/m 0,00 h 0,33 h 160 W/m 2,9 km/h (1 Bft) 97,55 %
25.07.2020 17:00 22,2 C 21,8 C 20,7 C 80 % 1010,6 hPa 0,0 l/m 0,00 h 0,00 h 110 W/m 6,3 km/h (2 Bft) 97,08 %
25.07.2020 18:00 22,4 C 23,0 C 21,5 C 81 % 1009,9 hPa 0,0 l/m 0,23 h 0,00 h 177 W/m 6,4 km/h (2 Bft) 98,24 %
25.07.2020 19:00 23,3 C 23,1 C 22,0 C 74 % 1009,2 hPa 0,0 l/m 0,00 h 0,00 h 98 W/m 9,8 km/h (2 Bft) 97,31 %
25.07.2020 20:00 23,4 C 22,4 C 21,6 C 72 % 1008,6 hPa 0,0 l/m 0,00 h 0,00 h 27 W/m 8,1 km/h (2 Bft) 95,73 %
25.07.2020 21:00 22,9 C 21,6 C 21,0 C 73 % 1008,3 hPa 0,0 l/m 0,00 h 0,00 h 4 W/m 7,3 km/h (2 Bft) 99,30 %
25.07.2020 22:00 22,4 C 21,1 C 20,3 C 72 % 1007,8 hPa 0,0 l/m 0,00 h 0,00 h 0 W/m 6,5 km/h (2 Bft) 97,41 %
25.07.2020 23:00 21,9 C 20,5 C 19,9 C 73 % 1007,5 hPa 0,0 l/m 0,00 h 0,00 h 0 W/m 5,9 km/h (2 Bft) 96,32 %
26.07.2020 00:00 21,2 C 17,9 C 17,6 C 80 % 1007,7 hPa 1,0 l/m 0,00 h 0,60 h 0 W/m 5,9 km/h (2 Bft) 98,55 %
26.07.2020 01:00 19,3 C 16,7 C 16,7 C 91 % 1007,8 hPa 2,6 l/m 0,00 h 0,97 h 0 W/m 1,7 km/h (1 Bft) 96,49 %
26.07.2020 02:00 18,5 C 16,7 C 16,7 C 95 % 1007,6 hPa 0,2 l/m 0,00 h 0,23 h 0 W/m 1,7 km/h (1 Bft) 98,51 %
26.07.2020 03:00 18,2 C 16,7 C 16,7 C 97 % 1007,4 hPa 0,0 l/m 0,00 h 0,13 h 0 W/m 4,2 km/h (1 Bft) 97,08 %
26.07.2020 04:00 17,7 C 16,0 C 15,9 C 97 % 1007,4 hPa 1,0 l/m 0,00 h 0,93 h 0 W/m 8,8 km/h (2 Bft) 96,06 %
26.07.2020 05:00 17,3 C 15,9 C 15,6 C 98 % 1007,4 hPa 1,0 l/m 0,00 h 0,77 h 0 W/m 7,1 km/h (2 Bft) 99,15 %
26.07.2020 06:00 17,2 C 15,9 C 15,6 C 98 % 1007,5 hPa 0,0 l/m 0,00 h 0,20 h 13 W/m 6,1 km/h (2 Bft) 98,16 %
26.07.2020 07:00 17,1 C 16,1 C 15,6 C 99 % 1008,2 hPa 0,0 l/m 0,00 h 0,00 h 41 W/m 10,5 km/h (2 Bft) 93,50 %
26.07.2020 08:00 17,3 C 17,2 C 16,2 C 99 % 1008,9 hPa 0,0 l/m 0,03 h 0,00 h 117 W/m 14,5 km/h (3 Bft) 99,57 %
26.07.2020 09:00 18,5 C 20,6 C 19,3 C 96 % 1009,6 hPa 0,0 l/m 0,47 h 0,00 h 335 W/m 14,5 km/h (3 Bft) 98,08 %
26.07.2020 10:00 20,6 C 23,3 C 22,2 C 82 % 1010,5 hPa 0,0 l/m 0,80 h 0,00 h 553 W/m 15,7 km/h (3 Bft) 95,53 %
26.07.2020 11:00 21,8 C 25,2 C 21,7 C 74 % 1011,1 hPa 0,0 l/m 0,80 h 0,00 h 696 W/m 17,0 km/h (3 Bft) 98,08 %
26.07.2020 12:00 23,7 C 27,6 C 22,8 C 66 % 1011,5 hPa 0,0 l/m 1,00 h 0,00 h 958 W/m 19,9 km/h (4 Bft) 96,87 %
26.07.2020 13:00 24,7 C 28,3 C 23,9 C 62 % 1011,7 hPa 0,0 l/m 0,90 h 0,00 h 869 W/m 17,4 km/h (3 Bft) 98,15 %
26.07.2020 14:00 24,2 C 24,8 C 23,4 C 61 % 1012,0 hPa 0,0 l/m 0,33 h 0,00 h 426 W/m 18,8 km/h (3 Bft) 96,58 %
26.07.2020 15:00 22,3 C 23,6 C 21,9 C 70 % 1012,6 hPa 0,0 l/m 0,57 h 0,00 h 494 W/m 19,0 km/h (3 Bft) 97,72 %
26.07.2020 16:00 23,7 C 24,8 C 22,9 C 66 % 1012,8 hPa 0,0 l/m 0,53 h 0,00 h 335 W/m 13,4 km/h (3 Bft) 97,93 %
26.07.2020 17:00 24,2 C 24,7 C 22,9 C 61 % 1013,3 hPa 0,0 l/m 0,20 h 0,00 h 250 W/m 13,9 km/h (3 Bft) 96,65 %
26.07.2020 18:00 23,7 C 24,3 C 22,2 C 64 % 1013,7 hPa 0,0 l/m 0,90 h 0,00 h 356 W/m 17,2 km/h (3 Bft) 98,32 %
26.07.2020 19:00 23,1 C 21,6 C 21,0 C 65 % 1014,0 hPa 0,0 l/m 0,03 h 0,00 h 60 W/m 9,0 km/h (2 Bft) 96,81 %
26.07.2020 20:00 22,0 C 20,5 C 20,1 C 68 % 1014,4 hPa 0,0 l/m 0,00 h 0,00 h 28 W/m 7,7 km/h (2 Bft) 97,38 %
26.07.2020 21:00 20,8 C 18,8 C 18,6 C 72 % 1015,0 hPa 0,0 l/m 0,00 h 0,00 h 7 W/m 6,1 km/h (2 Bft) 98,13 %
26.07.2020 22:00 19,4 C 16,7 C 16,3 C 78 % 1015,8 hPa 0,0 l/m 0,00 h 0,00 h 0 W/m 0,5 km/h (0 Bft) 97,08 %
26.07.2020 23:00 17,8 C 15,5 C 15,0 C 83 % 1016,3 hPa 0,0 l/m 0,00 h 0,00 h 0 W/m 0,5 km/h (0 Bft) 95,38 %
Min-Datum _ 21.07.20 21.07.20 21.07.20 22.07.20 26.07.20 - - - - 20.07.20 25.07.20
_ Min-Zeit 05:52 04:48 05:16 15:20 06:10 - - - - 00:00 00:02
Minimum _ 10,3 C 8,9 C 8,9 C 41 % 1007,0 hPa - - - - 0,0 km/h (0 Bft) 12,50 %
Max-Datum _ 23.07.20 23.07.20 23.07.20 26.07.20 22.07.20 26.07.20 20.07.20 20.07.20 20.07.20 25.07.20 20.07.20
_ Max-Zeit 17:38 15:08 13:58 06:42 02:44 01:02 12:08 06:08 13:48 11:26 00:10
Maximum _ 29,6 C 34,4 C 35,6 C 99 % 1025,0 hPa 2,6 l/m 0,07 h 0,07 h 1166 W/m 45,1 km/h
S-SO (6 Bft)
100,00 %
Durchschnitt _ 19,7 C 19,9 C 18,7 C 73 % 1016,9 hPa #7,4 l/m #47:54 h #5:54 h 339 W/m 6,0 km/h (2 Bft) 97,16 %
© 2020 W. Hausmann